Sky Ever — DSQX9 — position and weather

sailwx.info

Track history (hours):
 
Tides and Currents Weather Stations Pressure Air Temp Water Temp Dewpoint Dewpoint Depression Visibility Wind Speed Wind Dir Waves Ship Positions

Sky Ever

Last reported at 2017-Mar-11 10:07 UTC. Time now 2017-Mar-24 04:16 UTC.
Position N 34°52' E 139°48'.
Warning: this ship's position is 12 days out of date.

Length 76 m; draft 3 m.

Type: Cargo ship. MMSI: 441751000.

Date/timePositionNaut miles runAvg speedWind from/ knotsBaromVisibWave heightAir tempDewpointWater temp
2017-Mar-11 10:07N 34°52' E 139°48'6 9.0
2017-Mar-11 09:29N 34°56' E 139°44'8 8.7
2017-Mar-11 08:33N 35°04' E 139°44'1010.0
2017-Mar-11 07:33N 35°14' E 139°46'10 9.7
2017-Mar-11 06:33N 35°23' E 139°42'6 5.8
2017-Mar-11 05:33N 35°21' E 139°49'2 1.3
2017-Mar-11 04:24N 35°20' E 139°50'0 0.0
2017-Mar-11 03:24N 35°20' E 139°50'0 0.0
2017-Mar-11 02:30N 35°20' E 139°50'0 0.0
2017-Mar-10 18:18N 35°20' E 139°50'0 0.0
2017-Mar-10 08:18N 35°20' E 139°50'0 0.0
2017-Mar-10 07:18N 35°20' E 139°50'0 0.0
2017-Mar-10 06:18N 35°20' E 139°50'0 0.0
2017-Mar-10 05:13N 35°20' E 139°50'0 0.0
2017-Mar-10 04:32N 35°20' E 139°50'0 0.0
2017-Mar-10 03:29N 35°20' E 139°50'0 0.0
2017-Mar-10 02:29N 35°20' E 139°50'0 0.0
2017-Mar-10 01:25N 35°20' E 139°50'0 0.0
2017-Mar-10 00:24N 35°20' E 139°50'0 0.0
2017-Mar-09 23:33N 35°20' E 139°50'0 0.0
2017-Mar-09 22:32N 35°20' E 139°50'1 1.1
2017-Mar-09 21:33N 35°20' E 139°49'4 2.9
2017-Mar-09 20:08N 35°25' E 139°50'0 0.0
2017-Mar-09 19:14N 35°25' E 139°50'0 0.0
2017-Mar-09 18:32N 35°25' E 139°50'0 0.0
2017-Mar-09 16:32N 35°25' E 139°50'0 0.0
2017-Mar-09 15:26N 35°25' E 139°50'0 0.0
2017-Mar-09 14:32N 35°25' E 139°50'0 0.0
2017-Mar-09 13:32N 35°25' E 139°50'0 0.0
2017-Mar-09 12:26N 35°25' E 139°50'0 0.0
2017-Mar-09 11:26N 35°25' E 139°50'0 0.0
2017-Mar-09 10:32N 35°25' E 139°50'0 0.0
2017-Mar-09 09:17N 35°25' E 139°50'0 0.0
2017-Mar-09 08:17N 35°25' E 139°50'0 0.0
2017-Mar-09 07:26N 35°25' E 139°50'0 0.0
2017-Mar-09 05:32N 35°25' E 139°50'0 0.0
2017-Mar-09 04:23N 35°25' E 139°50'0 0.1
2017-Mar-09 03:20N 35°25' E 139°50'0 0.0
2017-Mar-09 02:32N 35°25' E 139°50'0 0.0
2017-Mar-08 23:32N 35°25' E 139°50'0 0.0
2017-Mar-08 22:32N 35°25' E 139°50'0 0.0
2017-Mar-08 21:29N 35°25' E 139°50'0 0.1
2017-Mar-08 20:28N 35°25' E 139°50'0 0.0
2017-Mar-08 19:28N 35°25' E 139°50'0 0.0
2017-Mar-08 18:28N 35°25' E 139°50'0 0.0
2017-Mar-08 17:28N 35°25' E 139°50'0 0.0
2017-Mar-08 16:19N 35°25' E 139°50'0 0.0
2017-Mar-08 15:31N 35°25' E 139°50'0 0.0
2017-Mar-08 14:28N 35°25' E 139°50'0 0.0
2017-Mar-08 12:31N 35°25' E 139°50'0 0.0
2017-Mar-08 11:31N 35°25' E 139°50'0 0.0
2017-Mar-08 10:31N 35°25' E 139°50'0 0.0
2017-Mar-08 09:25N 35°25' E 139°50'0 0.0
2017-Mar-08 08:25N 35°25' E 139°50'0 0.0
2017-Mar-08 05:04N 35°25' E 139°50'0 0.0
2017-Mar-08 04:31N 35°25' E 139°50'0 0.0
2017-Mar-08 03:31N 35°25' E 139°50'0 0.0
2017-Mar-08 02:31N 35°25' E 139°50'0 0.0
2017-Mar-08 01:22N 35°25' E 139°50'0 0.0
2017-Mar-07 22:31N 35°25' E 139°50'0 0.0
2017-Mar-07 21:16N 35°25' E 139°50'0 0.0
2017-Mar-07 20:31N 35°25' E 139°50'0 0.0
2017-Mar-07 18:07N 35°25' E 139°50'0 0.0
2017-Mar-07 17:25N 35°25' E 139°50'0 0.0
2017-Mar-07 16:31N 35°25' E 139°50'0 0.0
2017-Mar-07 15:22N 35°25' E 139°50'0 0.0
2017-Mar-07 14:28N 35°25' E 139°50'0 0.0
2017-Mar-07 13:28N 35°25' E 139°50'0 0.0
2017-Mar-07 12:25N 35°25' E 139°50'0 0.0
2017-Mar-07 11:19N 35°25' E 139°50'0 0.0
2017-Mar-07 10:31N 35°25' E 139°50'0 0.0
2017-Mar-07 09:31N 35°25' E 139°50'0 0.0
2017-Mar-07 08:31N 35°25' E 139°50'0 0.0
2017-Mar-07 07:07N 35°25' E 139°50'0 0.0
2017-Mar-07 05:13N 35°25' E 139°50'0 0.0
2017-Mar-07 04:16N 35°25' E 139°50'0 0.0
2017-Mar-07 03:13N 35°25' E 139°50'0 0.0
2017-Mar-07 02:31N 35°25' E 139°50'0 0.0
2017-Mar-07 01:19N 35°25' E 139°50'0 0.0
2017-Mar-06 23:28N 35°25' E 139°50'0 0.0
2017-Mar-06 22:22N 35°25' E 139°50'0 0.1
2017-Mar-06 21:31N 35°25' E 139°50'0 0.0
2017-Mar-06 20:31N 35°25' E 139°50'0 0.0
2017-Mar-06 19:33N 35°25' E 139°50'0 0.0
2017-Mar-06 18:34N 35°25' E 139°50'0 0.0
2017-Mar-06 17:30N 35°25' E 139°50'0 0.0
2017-Mar-06 14:12N 35°25' E 139°50'0 0.0
2017-Mar-06 12:18N 35°25' E 139°50'0 0.0
2017-Mar-06 11:28N 35°25' E 139°50'0 0.0
2017-Mar-06 10:33N 35°25' E 139°50'0 0.0
2017-Mar-06 09:33N 35°25' E 139°50'0 0.1
2017-Mar-06 08:34N 35°25' E 139°50'0 0.0
2017-Mar-06 07:34N 35°25' E 139°50'0 0.0
2017-Mar-06 06:31N 35°25' E 139°50'0 0.0
2017-Mar-06 05:25N 35°25' E 139°50'0 0.0
2017-Mar-06 04:33N 35°25' E 139°50'0 0.0
2017-Mar-06 02:34N 35°25' E 139°50'0 0.0
2017-Mar-06 01:32N 35°25' E 139°50'0 0.0
2017-Mar-06 00:34N 35°25' E 139°50'0 0.0
2017-Mar-05 23:34N 35°25' E 139°50'0 0.0
2017-Mar-05 22:33N 35°25' E 139°50'0 0.0
2017-Mar-05 21:29N 35°25' E 139°50'0 0.0
2017-Mar-05 20:33N 35°25' E 139°50'0 0.0
2017-Mar-05 19:33N 35°25' E 139°50'0 0.0
2017-Mar-05 18:33N 35°25' E 139°50'0 0.0
2017-Mar-05 17:31N 35°25' E 139°50'0 0.0
2017-Mar-05 16:34N 35°25' E 139°50'0 0.1
2017-Mar-05 15:33N 35°25' E 139°50'0 0.0
2017-Mar-05 14:32N 35°25' E 139°50'0 0.1
2017-Mar-05 13:34N 35°25' E 139°50'0 0.1
2017-Mar-05 12:33N 35°25' E 139°50'0 0.0
2017-Mar-05 11:29N 35°25' E 139°50'0 0.0
2017-Mar-05 10:33N 35°25' E 139°50'0 0.0
2017-Mar-05 09:33N 35°25' E 139°50'0 0.0
2017-Mar-05 08:16N 35°25' E 139°50'0 0.0
2017-Mar-05 07:33N 35°25' E 139°50'0 0.0
2017-Mar-05 06:33N 35°25' E 139°50'0 0.0
2017-Mar-05 05:25N 35°25' E 139°50'0 0.0
2017-Mar-05 04:32N 35°25' E 139°50'0 0.0
2017-Mar-05 03:33N 35°25' E 139°50'0 0.0
2017-Mar-05 02:33N 35°25' E 139°50'0 0.0
2017-Mar-05 01:33N 35°25' E 139°50'0 0.0
2017-Mar-05 00:33N 35°25' E 139°50'0 0.0
2017-Mar-04 23:33N 35°25' E 139°50'0 0.0
2017-Mar-04 22:33N 35°25' E 139°50'0 0.0
2017-Mar-04 21:29N 35°25' E 139°50'0 0.0
2017-Mar-04 20:32N 35°25' E 139°50'0 0.0
2017-Mar-04 19:29N 35°25' E 139°50'0 0.0
2017-Mar-04 18:33N 35°25' E 139°50'0 0.0
2017-Mar-04 17:33N 35°25' E 139°50'0 0.0
2017-Mar-04 16:22N 35°25' E 139°50'0 0.1
2017-Mar-04 15:34N 35°25' E 139°50'0 0.0
2017-Mar-04 14:33N 35°25' E 139°50'0 0.0
2017-Mar-04 13:33N 35°25' E 139°50'0 0.0
2017-Mar-04 12:30N 35°25' E 139°50'0 0.1
2017-Mar-04 11:34N 35°25' E 139°50'0 0.1
2017-Mar-04 10:33N 35°25' E 139°50'0 0.0
2017-Mar-04 09:33N 35°25' E 139°50'0 0.0
2017-Mar-04 08:33N 35°25' E 139°50'0 0.0
2017-Mar-04 07:33N 35°25' E 139°50'0 0.0
2017-Mar-04 06:32N 35°25' E 139°50'3 3.3
2017-Mar-04 05:33N 35°24' E 139°46'8 7.5
2017-Mar-04 04:33N 35°16' E 139°47'8 7.9
2017-Mar-04 03:33N 35°08' E 139°45'9 8.5
2017-Mar-04 02:33N 35°01' E 139°39'  
2017-Mar-01 22:05N 33°57' E 132°43'4 7.5
2017-Mar-01 21:34N 33°55' E 132°39'8 7.6
2017-Mar-01 20:33N 33°52' E 132°31'8 7.7
2017-Mar-01 19:33N 33°50' E 132°22'  
Track history (hours):
 
Tides and Currents Weather Stations Pressure Air Temp Water Temp Dewpoint Dewpoint Depression Visibility Wind Speed Wind Dir Waves Ship Positions

Sky Ever

Last reported at 2017-Mar-11 10:07 UTC. Time now 2017-Mar-24 04:16 UTC.
Position N 34°52' E 139°48'.
Warning: this ship's position is 12 days out of date.

Length 76 m; draft 3 m.

Type: Cargo ship. MMSI: 441751000.

Date/timePositionNaut miles runAvg speedWind from/ knotsBaromVisibWave heightAir tempDewpointWater temp
2017-Mar-11 10:07N 34°52' E 139°48'6 9.0
2017-Mar-11 09:29N 34°56' E 139°44'8 8.7
2017-Mar-11 08:33N 35°04' E 139°44'1010.0
2017-Mar-11 07:33N 35°14' E 139°46'10 9.7
2017-Mar-11 06:33N 35°23' E 139°42'6 5.8
2017-Mar-11 05:33N 35°21' E 139°49'2 1.3
2017-Mar-11 04:24N 35°20' E 139°50'0 0.0
2017-Mar-11 03:24N 35°20' E 139°50'0 0.0
2017-Mar-11 02:30N 35°20' E 139°50'0 0.0
2017-Mar-10 18:18N 35°20' E 139°50'0 0.0
2017-Mar-10 08:18N 35°20' E 139°50'0 0.0
2017-Mar-10 07:18N 35°20' E 139°50'0 0.0
2017-Mar-10 06:18N 35°20' E 139°50'0 0.0
2017-Mar-10 05:13N 35°20' E 139°50'0 0.0
2017-Mar-10 04:32N 35°20' E 139°50'0 0.0
2017-Mar-10 03:29N 35°20' E 139°50'0 0.0
2017-Mar-10 02:29N 35°20' E 139°50'0 0.0
2017-Mar-10 01:25N 35°20' E 139°50'0 0.0
2017-Mar-10 00:24N 35°20' E 139°50'0 0.0
2017-Mar-09 23:33N 35°20' E 139°50'0 0.0
2017-Mar-09 22:32N 35°20' E 139°50'1 1.1
2017-Mar-09 21:33N 35°20' E 139°49'4 2.9
2017-Mar-09 20:08N 35°25' E 139°50'0 0.0
2017-Mar-09 19:14N 35°25' E 139°50'0 0.0
2017-Mar-09 18:32N 35°25' E 139°50'0 0.0
2017-Mar-09 16:32N 35°25' E 139°50'0 0.0
2017-Mar-09 15:26N 35°25' E 139°50'0 0.0
2017-Mar-09 14:32N 35°25' E 139°50'0 0.0
2017-Mar-09 13:32N 35°25' E 139°50'0 0.0
2017-Mar-09 12:26N 35°25' E 139°50'0 0.0
2017-Mar-09 11:26N 35°25' E 139°50'0 0.0
2017-Mar-09 10:32N 35°25' E 139°50'0 0.0
2017-Mar-09 09:17N 35°25' E 139°50'0 0.0
2017-Mar-09 08:17N 35°25' E 139°50'0 0.0
2017-Mar-09 07:26N 35°25' E 139°50'0 0.0
2017-Mar-09 05:32N 35°25' E 139°50'0 0.0
2017-Mar-09 04:23N 35°25' E 139°50'0 0.1
2017-Mar-09 03:20N 35°25' E 139°50'0 0.0
2017-Mar-09 02:32N 35°25' E 139°50'0 0.0
2017-Mar-08 23:32N 35°25' E 139°50'0 0.0
2017-Mar-08 22:32N 35°25' E 139°50'0 0.0
2017-Mar-08 21:29N 35°25' E 139°50'0 0.1
2017-Mar-08 20:28N 35°25' E 139°50'0 0.0
2017-Mar-08 19:28N 35°25' E 139°50'0 0.0
2017-Mar-08 18:28N 35°25' E 139°50'0 0.0
2017-Mar-08 17:28N 35°25' E 139°50'0 0.0
2017-Mar-08 16:19N 35°25' E 139°50'0 0.0
2017-Mar-08 15:31N 35°25' E 139°50'0 0.0
2017-Mar-08 14:28N 35°25' E 139°50'0 0.0
2017-Mar-08 12:31N 35°25' E 139°50'0 0.0
2017-Mar-08 11:31N 35°25' E 139°50'0 0.0
2017-Mar-08 10:31N 35°25' E 139°50'0 0.0
2017-Mar-08 09:25N 35°25' E 139°50'0 0.0
2017-Mar-08 08:25N 35°25' E 139°50'0 0.0
2017-Mar-08 05:04N 35°25' E 139°50'0 0.0
2017-Mar-08 04:31N 35°25' E 139°50'0 0.0
2017-Mar-08 03:31N 35°25' E 139°50'0 0.0
2017-Mar-08 02:31N 35°25' E 139°50'0 0.0
2017-Mar-08 01:22N 35°25' E 139°50'0 0.0
2017-Mar-07 22:31N 35°25' E 139°50'0 0.0
2017-Mar-07 21:16N 35°25' E 139°50'0 0.0
2017-Mar-07 20:31N 35°25' E 139°50'0 0.0
2017-Mar-07 18:07N 35°25' E 139°50'0 0.0
2017-Mar-07 17:25N 35°25' E 139°50'0 0.0
2017-Mar-07 16:31N 35°25' E 139°50'0 0.0
2017-Mar-07 15:22N 35°25' E 139°50'0 0.0
2017-Mar-07 14:28N 35°25' E 139°50'0 0.0
2017-Mar-07 13:28N 35°25' E 139°50'0 0.0
2017-Mar-07 12:25N 35°25' E 139°50'0 0.0
2017-Mar-07 11:19N 35°25' E 139°50'0 0.0
2017-Mar-07 10:31N 35°25' E 139°50'0 0.0
2017-Mar-07 09:31N 35°25' E 139°50'0 0.0
2017-Mar-07 08:31N 35°25' E 139°50'0 0.0
2017-Mar-07 07:07N 35°25' E 139°50'0 0.0
2017-Mar-07 05:13N 35°25' E 139°50'0 0.0
2017-Mar-07 04:16N 35°25' E 139°50'0 0.0
2017-Mar-07 03:13N 35°25' E 139°50'0 0.0
2017-Mar-07 02:31N 35°25' E 139°50'0 0.0
2017-Mar-07 01:19N 35°25' E 139°50'0 0.0
2017-Mar-06 23:28N 35°25' E 139°50'0 0.0
2017-Mar-06 22:22N 35°25' E 139°50'0 0.1
2017-Mar-06 21:31N 35°25' E 139°50'0 0.0
2017-Mar-06 20:31N 35°25' E 139°50'0 0.0
2017-Mar-06 19:33N 35°25' E 139°50'0 0.0
2017-Mar-06 18:34N 35°25' E 139°50'0 0.0
2017-Mar-06 17:30N 35°25' E 139°50'0 0.0
2017-Mar-06 14:12N 35°25' E 139°50'0 0.0
2017-Mar-06 12:18N 35°25' E 139°50'0 0.0
2017-Mar-06 11:28N 35°25' E 139°50'0 0.0
2017-Mar-06 10:33N 35°25' E 139°50'0 0.0
2017-Mar-06 09:33N 35°25' E 139°50'0 0.1
2017-Mar-06 08:34N 35°25' E 139°50'0 0.0
2017-Mar-06 07:34N 35°25' E 139°50'0 0.0
2017-Mar-06 06:31N 35°25' E 139°50'0 0.0
2017-Mar-06 05:25N 35°25' E 139°50'0 0.0
2017-Mar-06 04:33N 35°25' E 139°50'0 0.0
2017-Mar-06 02:34N 35°25' E 139°50'0 0.0
2017-Mar-06 01:32N 35°25' E 139°50'0 0.0
2017-Mar-06 00:34N 35°25' E 139°50'0 0.0
2017-Mar-05 23:34N 35°25' E 139°50'0 0.0
2017-Mar-05 22:33N 35°25' E 139°50'0 0.0
2017-Mar-05 21:29N 35°25' E 139°50'0 0.0
2017-Mar-05 20:33N 35°25' E 139°50'0 0.0
2017-Mar-05 19:33N 35°25' E 139°50'0 0.0
2017-Mar-05 18:33N 35°25' E 139°50'0 0.0
2017-Mar-05 17:31N 35°25' E 139°50'0 0.0
2017-Mar-05 16:34N 35°25' E 139°50'0 0.1
2017-Mar-05 15:33N 35°25' E 139°50'0 0.0
2017-Mar-05 14:32N 35°25' E 139°50'0 0.1
2017-Mar-05 13:34N 35°25' E 139°50'0 0.1
2017-Mar-05 12:33N 35°25' E 139°50'0 0.0
2017-Mar-05 11:29N 35°25' E 139°50'0 0.0
2017-Mar-05 10:33N 35°25' E 139°50'0 0.0
2017-Mar-05 09:33N 35°25' E 139°50'0 0.0
2017-Mar-05 08:16N 35°25' E 139°50'0 0.0
2017-Mar-05 07:33N 35°25' E 139°50'0 0.0
2017-Mar-05 06:33N 35°25' E 139°50'0 0.0
2017-Mar-05 05:25N 35°25' E 139°50'0 0.0
2017-Mar-05 04:32N 35°25' E 139°50'0 0.0
2017-Mar-05 03:33N 35°25' E 139°50'0 0.0
2017-Mar-05 02:33N 35°25' E 139°50'0 0.0
2017-Mar-05 01:33N 35°25' E 139°50'0 0.0
2017-Mar-05 00:33N 35°25' E 139°50'0 0.0
2017-Mar-04 23:33N 35°25' E 139°50'0 0.0
2017-Mar-04 22:33N 35°25' E 139°50'0 0.0
2017-Mar-04 21:29N 35°25' E 139°50'0 0.0
2017-Mar-04 20:32N 35°25' E 139°50'0 0.0
2017-Mar-04 19:29N 35°25' E 139°50'0 0.0
2017-Mar-04 18:33N 35°25' E 139°50'0 0.0
2017-Mar-04 17:33N 35°25' E 139°50'0 0.0
2017-Mar-04 16:22N 35°25' E 139°50'0 0.1
2017-Mar-04 15:34N 35°25' E 139°50'0 0.0
2017-Mar-04 14:33N 35°25' E 139°50'0 0.0
2017-Mar-04 13:33N 35°25' E 139°50'0 0.0
2017-Mar-04 12:30N 35°25' E 139°50'0 0.1
2017-Mar-04 11:34N 35°25' E 139°50'0 0.1
2017-Mar-04 10:33N 35°25' E 139°50'0 0.0
2017-Mar-04 09:33N 35°25' E 139°50'0 0.0
2017-Mar-04 08:33N 35°25' E 139°50'0 0.0
2017-Mar-04 07:33N 35°25' E 139°50'0 0.0
2017-Mar-04 06:32N 35°25' E 139°50'3 3.3
2017-Mar-04 05:33N 35°24' E 139°46'8 7.5
2017-Mar-04 04:33N 35°16' E 139°47'8 7.9
2017-Mar-04 03:33N 35°08' E 139°45'9 8.5
2017-Mar-04 02:33N 35°01' E 139°39'  
2017-Mar-01 22:05N 33°57' E 132°43'4 7.5
2017-Mar-01 21:34N 33°55' E 132°39'8 7.6
2017-Mar-01 20:33N 33°52' E 132°31'8 7.7
2017-Mar-01 19:33N 33°50' E 132°22'  

Dump ship's entire track history